createdAt,value
2018-02-20T00:00:13.837Z,89.60
2018-02-20T00:02:41.991Z,89.60
2018-02-20T00:05:10.892Z,89.30
2018-02-20T00:07:39.089Z,89.20
2018-02-20T00:10:07.229Z,88.90
2018-02-20T00:12:35.412Z,89.00
2018-02-20T00:15:03.542Z,89.00
2018-02-20T00:17:31.693Z,89.30
2018-02-20T00:19:59.824Z,89.40
2018-02-20T00:22:28.751Z,89.20
2018-02-20T00:24:56.888Z,89.20
2018-02-20T00:27:25.805Z,89.40
2018-02-20T00:29:53.944Z,90.00
2018-02-20T00:32:22.850Z,89.20
2018-02-20T00:34:51.022Z,89.20
2018-02-20T00:37:19.168Z,89.20
2018-02-20T00:39:47.325Z,89.30
2018-02-20T00:42:15.469Z,89.40
2018-02-20T00:44:43.624Z,89.50
2018-02-20T00:47:11.756Z,89.60
2018-02-20T00:49:39.918Z,89.50
2018-02-20T00:52:08.057Z,89.40
2018-02-20T00:54:36.211Z,89.70
2018-02-20T00:57:04.344Z,89.60
2018-02-20T00:59:32.502Z,89.20
2018-02-20T01:02:00.645Z,89.40
2018-02-20T01:04:28.801Z,89.70
2018-02-20T01:06:57.820Z,89.20
2018-02-20T01:09:25.989Z,89.40
2018-02-20T01:11:54.125Z,89.40
2018-02-20T01:14:22.265Z,89.10
2018-02-20T01:16:50.421Z,89.10
2018-02-20T01:19:18.562Z,89.10
2018-02-20T01:21:46.737Z,89.10
2018-02-20T01:24:14.889Z,89.40
2018-02-20T01:26:43.813Z,89.90
2018-02-20T01:29:11.949Z,89.90
2018-02-20T01:31:40.868Z,90.10
2018-02-20T01:34:09.008Z,90.10
2018-02-20T01:36:37.945Z,90.00
2018-02-20T01:39:06.085Z,90.00
2018-02-20T01:41:35.029Z,88.60
2018-02-20T01:44:03.176Z,88.70
2018-02-20T01:46:31.311Z,88.90
2018-02-20T01:49:00.245Z,89.40
2018-02-20T01:51:28.372Z,89.40
2018-02-20T01:53:57.302Z,89.40
2018-02-20T01:56:25.442Z,89.40
2018-02-20T01:58:54.364Z,89.30
2018-02-20T02:01:22.492Z,89.30
2018-02-20T02:03:50.657Z,89.30
2018-02-20T02:06:18.792Z,89.70
2018-02-20T02:08:46.945Z,89.70
2018-02-20T02:11:15.080Z,89.70
2018-02-20T02:13:43.264Z,89.20
2018-02-20T02:16:12.168Z,88.30
2018-02-20T02:18:41.077Z,88.50
2018-02-20T02:21:09.234Z,88.50
2018-02-20T02:23:38.141Z,88.90
2018-02-20T02:26:06.300Z,88.90
2018-02-20T02:28:34.457Z,89.00
2018-02-20T02:31:03.389Z,89.10
2018-02-20T02:33:31.534Z,89.10
2018-02-20T02:36:00.469Z,88.90
2018-02-20T02:38:28.629Z,88.90
2018-02-20T02:40:56.769Z,89.20
2018-02-20T02:43:25.685Z,88.50
2018-02-20T02:45:53.825Z,88.40
2018-02-20T02:48:22.750Z,88.30
2018-02-20T02:50:50.884Z,88.30
2018-02-20T02:53:19.065Z,88.20
2018-02-20T02:55:47.221Z,88.20
2018-02-20T02:58:15.393Z,88.70
2018-02-20T03:00:43.536Z,88.70
2018-02-20T03:03:11.669Z,88.60
2018-02-20T03:05:39.886Z,88.60
2018-02-20T03:08:08.028Z,88.90
2018-02-20T03:10:36.180Z,88.80
2018-02-20T03:13:05.080Z,89.00
2018-02-20T03:15:33.237Z,88.90
2018-02-20T03:18:02.148Z,88.60
2018-02-20T03:20:30.304Z,88.40
2018-02-20T03:22:59.217Z,88.40
2018-02-20T03:25:27.441Z,88.40
2018-02-20T03:27:55.579Z,88.30
2018-02-20T03:30:23.729Z,88.50
2018-02-20T03:32:51.900Z,88.60
2018-02-20T03:35:20.060Z,88.40
2018-02-20T03:37:49.020Z,88.40
2018-02-20T03:40:17.152Z,88.40
2018-02-20T03:42:45.344Z,88.40
2018-02-20T03:45:13.567Z,88.50
2018-02-20T03:47:42.492Z,88.50
2018-02-20T03:50:10.657Z,88.50
2018-02-20T03:52:38.808Z,88.60
2018-02-20T03:55:07.708Z,88.70
2018-02-20T03:57:36.632Z,88.90
2018-02-20T04:00:04.773Z,88.90
2018-02-20T04:02:33.733Z,88.40
2018-02-20T04:05:01.878Z,88.40
2018-02-20T04:07:30.036Z,88.80
2018-02-20T04:09:58.188Z,88.60
2018-02-20T04:12:27.100Z,88.60
2018-02-20T04:14:55.259Z,88.60
2018-02-20T04:17:23.413Z,88.70
2018-02-20T04:19:52.332Z,88.70
2018-02-20T04:22:20.468Z,88.60
2018-02-20T04:24:49.397Z,89.60
2018-02-20T04:27:17.542Z,88.80
2018-02-20T04:29:46.512Z,89.70
2018-02-20T04:32:14.649Z,89.80
2018-02-20T04:34:42.806Z,89.70
2018-02-20T04:37:10.948Z,90.00
2018-02-20T04:39:39.136Z,89.80
2018-02-20T04:42:08.042Z,89.30
2018-02-20T04:44:36.192Z,89.20
2018-02-20T04:47:05.097Z,89.30
2018-02-20T04:49:33.269Z,89.20
2018-02-20T04:52:01.426Z,89.10
2018-02-20T04:54:30.360Z,89.30
2018-02-20T04:57:01.709Z,89.20
2018-02-20T04:59:29.846Z,89.50
2018-02-20T05:01:58.773Z,89.00
2018-02-20T05:04:26.912Z,89.00
2018-02-20T05:06:55.095Z,88.80
2018-02-20T05:09:23.239Z,88.70
2018-02-20T05:11:52.164Z,88.30
2018-02-20T05:14:20.300Z,88.30
2018-02-20T05:16:48.461Z,88.80
2018-02-20T05:19:16.596Z,88.70
2018-02-20T05:21:44.752Z,88.90
2018-02-20T05:24:12.897Z,89.20
2018-02-20T05:26:45.471Z,90.70
2018-02-20T05:29:13.613Z,90.40
2018-02-20T05:31:41.769Z,91.10
2018-02-20T05:34:09.912Z,91.60
2018-02-20T05:36:38.078Z,91.70
2018-02-20T05:39:07.003Z,92.00
2018-02-20T05:41:35.145Z,92.00
2018-02-20T05:44:03.301Z,92.00
2018-02-20T05:46:31.442Z,91.90
2018-02-20T05:48:59.592Z,92.00
2018-02-20T05:51:27.773Z,91.90
2018-02-20T05:53:56.666Z,91.50
2018-02-20T05:56:24.802Z,91.50
2018-02-20T05:58:53.733Z,91.70
2018-02-20T06:01:21.868Z,91.70
2018-02-20T06:03:50.077Z,91.60
2018-02-20T06:06:19.142Z,91.40
2018-02-20T06:08:47.300Z,91.60
2018-02-20T06:11:16.207Z,91.90
2018-02-20T06:13:44.365Z,91.80
2018-02-20T06:16:13.269Z,92.00
2018-02-20T06:18:41.441Z,92.00
2018-02-20T06:21:09.596Z,91.90
2018-02-20T06:23:37.780Z,91.90
2018-02-20T06:26:06.686Z,91.90
2018-02-20T06:28:34.858Z,91.90
2018-02-20T06:31:03.001Z,91.70
2018-02-20T06:33:31.909Z,91.80
2018-02-20T06:36:00.093Z,91.80
2018-02-20T06:38:28.237Z,91.80
2018-02-20T06:40:57.160Z,91.90
2018-02-20T06:43:25.298Z,91.90
2018-02-20T06:45:53.461Z,91.90
2018-02-20T06:48:21.601Z,92.00
2018-02-20T06:50:49.793Z,92.20
2018-02-20T06:53:17.936Z,92.10
2018-02-20T06:55:46.093Z,92.20
2018-02-20T06:58:14.253Z,92.10
2018-02-20T07:00:43.182Z,92.20
2018-02-20T07:03:11.323Z,92.20
2018-02-20T07:05:39.485Z,92.20
2018-02-20T07:08:08.389Z,92.30
2018-02-20T07:10:36.561Z,92.20
2018-02-20T07:13:05.460Z,92.00
2018-02-20T07:15:33.632Z,92.00
2018-02-20T07:18:01.781Z,91.70
2018-02-20T07:20:30.704Z,91.30
2018-02-20T07:22:58.836Z,91.30
2018-02-20T07:25:27.007Z,91.40
2018-02-20T07:27:55.144Z,91.70
2018-02-20T07:30:23.285Z,91.30
2018-02-20T07:32:52.198Z,91.40
2018-02-20T07:35:20.341Z,91.50
2018-02-20T07:37:49.263Z,91.20
2018-02-20T07:40:18.160Z,91.30
2018-02-20T07:42:46.308Z,91.30
2018-02-20T07:45:14.452Z,90.90
2018-02-20T07:47:43.384Z,90.90
2018-02-20T07:50:11.536Z,90.90
2018-02-20T07:52:40.456Z,90.90
2018-02-20T07:55:08.617Z,90.90
2018-02-20T07:57:36.825Z,91.10
2018-02-20T08:00:04.957Z,90.70
2018-02-20T08:02:33.117Z,90.90
2018-02-20T08:05:01.261Z,90.70
2018-02-20T08:07:29.408Z,90.80
2018-02-20T08:09:57.545Z,90.60
2018-02-20T08:12:25.721Z,90.60
2018-02-20T08:14:53.873Z,90.60
2018-02-20T08:17:22.812Z,90.10
2018-02-20T08:19:50.956Z,90.00
2018-02-20T08:22:19.130Z,89.90
2018-02-20T08:24:47.280Z,90.20
2018-02-20T08:27:16.185Z,90.00
2018-02-20T08:29:45.140Z,90.10
2018-02-20T08:32:13.291Z,90.20
2018-02-20T08:34:41.485Z,90.00
2018-02-20T08:37:09.625Z,89.60
2018-02-20T08:39:37.789Z,90.00
2018-02-20T08:42:05.928Z,89.90
2018-02-20T08:44:34.854Z,90.30
2018-02-20T08:47:03.042Z,90.30
2018-02-20T08:49:31.241Z,90.50
2018-02-20T08:51:59.385Z,89.80
2018-02-20T08:54:27.542Z,89.20
2018-02-20T08:56:55.694Z,89.50
2018-02-20T08:59:24.633Z,89.20
2018-02-20T09:01:52.781Z,89.10
2018-02-20T09:04:20.941Z,89.40
2018-02-20T09:06:49.125Z,89.10
2018-02-20T09:09:17.261Z,88.20
2018-02-20T09:11:45.412Z,89.10
2018-02-20T09:14:13.552Z,89.40
2018-02-20T09:16:41.705Z,89.20
2018-02-20T09:19:10.600Z,88.30
2018-02-20T09:21:38.855Z,88.30
2018-02-20T09:24:07.764Z,88.90
2018-02-20T09:26:35.921Z,88.80
2018-02-20T09:29:04.824Z,88.50
2018-02-20T09:31:33.746Z,88.70
2018-02-20T09:34:01.882Z,88.70
2018-02-20T09:36:30.809Z,89.80
2018-02-20T09:38:58.954Z,89.80
2018-02-20T09:41:27.108Z,89.30
2018-02-20T09:43:56.025Z,85.80
2018-02-20T09:46:24.194Z,85.80
2018-02-20T09:48:52.337Z,86.10
2018-02-20T09:51:20.502Z,86.90
2018-02-20T09:53:48.661Z,85.80
2018-02-20T09:56:16.789Z,85.90
2018-02-20T09:58:44.945Z,85.80
2018-02-20T10:01:13.857Z,86.10
2018-02-20T10:03:42.021Z,86.20
2018-02-20T10:06:10.189Z,85.90
2018-02-20T10:08:39.121Z,86.10
2018-02-20T10:11:07.277Z,86.10
2018-02-20T10:13:35.432Z,84.30
2018-02-20T10:16:04.333Z,82.40
2018-02-20T10:18:32.485Z,82.30
2018-02-20T10:21:01.391Z,80.80
2018-02-20T10:23:29.653Z,80.80
2018-02-20T10:25:57.872Z,80.50
2018-02-20T10:28:26.073Z,80.70
2018-02-20T10:30:54.258Z,79.20
2018-02-20T10:33:22.450Z,77.30
2018-02-20T10:35:52.366Z,74.00
2018-02-20T10:38:21.382Z,71.50
2018-02-20T10:40:49.537Z,71.50
2018-02-20T10:43:17.728Z,71.00
2018-02-20T10:45:51.481Z,70.30
2018-02-20T10:48:19.701Z,69.00
2018-02-20T10:50:47.906Z,70.00
2018-02-20T10:53:16.045Z,69.20
2018-02-20T10:55:49.581Z,69.20
2018-02-20T10:58:17.717Z,68.20
2018-02-20T11:00:45.873Z,67.80
2018-02-20T11:03:14.769Z,66.70
2018-02-20T11:05:44.621Z,65.70
2018-02-20T11:08:12.753Z,65.80
2018-02-20T11:10:41.680Z,63.50
2018-02-20T11:13:09.808Z,63.40
2018-02-20T11:15:37.965Z,60.30
2018-02-20T11:18:06.097Z,59.90
2018-02-20T11:20:34.259Z,60.30
2018-02-20T11:23:02.388Z,60.50
2018-02-20T11:25:30.533Z,60.70
2018-02-20T11:27:58.675Z,61.00
2018-02-20T11:30:26.824Z,59.90
2018-02-20T11:32:55.725Z,59.50
2018-02-20T11:35:26.901Z,59.40
2018-02-20T11:37:55.033Z,60.00
2018-02-20T11:40:23.950Z,59.20
2018-02-20T11:42:52.093Z,59.20
2018-02-20T11:45:22.161Z,58.30
2018-02-20T11:47:50.298Z,58.50
2018-02-20T11:50:18.457Z,58.90
2018-02-20T11:52:47.353Z,58.70
2018-02-20T11:55:16.468Z,58.70
2018-02-20T11:57:44.617Z,58.30
2018-02-20T12:00:13.513Z,58.40
2018-02-20T12:02:41.661Z,58.40
2018-02-20T12:05:10.709Z,59.00
2018-02-20T12:07:39.626Z,58.90
2018-02-20T12:10:07.793Z,58.90
2018-02-20T12:12:35.947Z,58.60
2018-02-20T12:15:04.077Z,58.30
2018-02-20T12:17:32.271Z,58.40
2018-02-20T12:20:00.408Z,57.40
2018-02-20T12:22:28.552Z,57.80
2018-02-20T12:24:59.681Z,56.90
2018-02-20T12:27:27.833Z,57.60
2018-02-20T12:29:55.961Z,56.30
2018-02-20T12:32:24.116Z,56.30
2018-02-20T12:35:00.353Z,56.30
2018-02-20T12:37:28.537Z,55.80
2018-02-20T12:39:56.660Z,56.00
2018-02-20T12:42:25.562Z,56.00
2018-02-20T12:45:06.694Z,56.10
2018-02-20T12:47:34.816Z,56.10
2018-02-20T12:50:03.735Z,54.90
2018-02-20T12:52:31.872Z,54.90
2018-02-20T12:55:01.949Z,55.10
2018-02-20T12:57:30.072Z,55.00
2018-02-20T12:59:58.989Z,56.00
2018-02-20T13:02:27.122Z,56.00
2018-02-20T13:04:56.047Z,55.90
2018-02-20T13:07:24.192Z,55.90
2018-02-20T13:09:53.109Z,55.70
2018-02-20T13:12:21.252Z,56.30
2018-02-20T13:14:51.118Z,56.20
2018-02-20T13:17:19.252Z,56.20
2018-02-20T13:19:48.202Z,56.30
2018-02-20T13:22:16.347Z,56.30
2018-02-20T13:24:46.458Z,55.50
2018-02-20T13:27:14.609Z,55.50
2018-02-20T13:29:42.741Z,55.70
2018-02-20T13:32:10.917Z,56.50
2018-02-20T13:34:40.089Z,56.70
2018-02-20T13:37:08.241Z,56.40
2018-02-20T13:39:36.381Z,56.60
2018-02-20T13:42:05.296Z,56.50
2018-02-20T13:44:33.438Z,56.50
2018-02-20T13:47:02.841Z,56.10
2018-02-20T13:49:30.976Z,56.30
2018-02-20T13:51:59.197Z,57.50
2018-02-20T13:54:28.279Z,56.60
2018-02-20T13:56:56.428Z,56.50
2018-02-20T13:59:24.556Z,57.10
2018-02-20T14:01:52.715Z,56.50
2018-02-20T14:04:21.610Z,56.90
2018-02-20T14:06:58.233Z,57.90
2018-02-20T14:09:26.365Z,57.30
2018-02-20T14:11:54.506Z,57.30
2018-02-20T14:14:22.653Z,58.10
2018-02-20T14:16:54.385Z,58.30
2018-02-20T14:19:22.537Z,58.50
2018-02-20T14:21:51.484Z,58.60
2018-02-20T14:24:19.634Z,58.60
2018-02-20T14:26:53.627Z,58.00
2018-02-20T14:29:21.784Z,58.00
2018-02-20T14:31:49.937Z,58.20
2018-02-20T14:34:18.854Z,58.80
2018-02-20T14:36:47.966Z,58.20
2018-02-20T14:39:16.121Z,58.30
2018-02-20T14:41:44.261Z,58.10
2018-02-20T14:44:12.425Z,58.10
2018-02-20T14:46:40.555Z,58.30
2018-02-20T14:49:08.706Z,58.50
2018-02-20T14:51:37.596Z,58.90
2018-02-20T14:54:05.766Z,58.80
2018-02-20T14:56:34.657Z,59.50
2018-02-20T14:59:02.807Z,59.40
2018-02-20T15:01:30.933Z,60.30
2018-02-20T15:03:59.081Z,59.20
2018-02-20T15:06:27.220Z,59.80
2018-02-20T15:08:55.417Z,59.20
2018-02-20T15:11:24.333Z,60.00
2018-02-20T15:13:52.457Z,59.80
2018-02-20T15:16:20.605Z,59.60
2018-02-20T15:18:48.746Z,59.60
2018-02-20T15:21:16.906Z,59.60
2018-02-20T15:23:45.040Z,59.10
2018-02-20T15:26:13.190Z,59.10
2018-02-20T15:28:41.312Z,59.50
2018-02-20T15:31:10.234Z,60.40
2018-02-20T15:33:38.365Z,60.40
2018-02-20T15:36:06.518Z,60.10
2018-02-20T15:38:34.645Z,61.00
2018-02-20T15:41:02.813Z,59.80
2018-02-20T15:43:30.954Z,60.50
2018-02-20T15:45:59.104Z,60.30
2018-02-20T15:48:27.229Z,61.10
2018-02-20T15:50:55.381Z,61.90
2018-02-20T15:53:24.273Z,61.60
2018-02-20T15:55:53.189Z,61.40
2018-02-20T15:58:21.362Z,61.40
2018-02-20T16:00:49.512Z,61.90
2018-02-20T16:03:18.405Z,62.80
2018-02-20T16:05:46.570Z,62.90
2018-02-20T16:08:14.701Z,61.80
2018-02-20T16:10:42.877Z,62.40
2018-02-20T16:13:11.012Z,62.70
2018-02-20T16:15:40.041Z,62.50
2018-02-20T16:18:08.193Z,62.90
2018-02-20T16:20:36.318Z,63.40
2018-02-20T16:23:04.464Z,63.30
2018-02-20T16:25:32.615Z,62.90
2018-02-20T16:28:00.764Z,63.50
2018-02-20T16:30:29.649Z,63.30
2018-02-20T16:32:58.568Z,63.70
2018-02-20T16:35:26.717Z,63.70
2018-02-20T16:37:54.872Z,63.20
2018-02-20T16:40:22.989Z,63.50
2018-02-20T16:42:51.133Z,63.60
2018-02-20T16:45:20.965Z,64.10
2018-02-20T16:47:49.120Z,64.10
2018-02-20T16:50:17.257Z,64.10
2018-02-20T16:52:45.410Z,64.80
2018-02-20T16:55:14.491Z,64.70
2018-02-20T16:57:42.643Z,64.80
2018-02-20T17:00:10.791Z,65.30
2018-02-20T17:02:39.731Z,65.40
2018-02-20T17:05:07.861Z,65.30
2018-02-20T17:07:36.761Z,64.70
2018-02-20T17:10:05.674Z,64.70
2018-02-20T17:12:33.805Z,64.70
2018-02-20T17:15:10.651Z,64.80
2018-02-20T17:17:38.788Z,64.60
2018-02-20T17:20:06.989Z,65.20
2018-02-20T17:22:35.120Z,65.20
2018-02-20T17:25:04.989Z,65.40
2018-02-20T17:27:33.125Z,65.40
2018-02-20T17:30:01.290Z,65.30
2018-02-20T17:32:29.431Z,65.60
2018-02-20T17:34:58.598Z,65.70
2018-02-20T17:37:26.737Z,66.20
2018-02-20T17:39:54.898Z,66.70
2018-02-20T17:42:23.811Z,65.70
2018-02-20T17:44:53.880Z,65.60
2018-02-20T17:47:22.021Z,66.10
2018-02-20T17:49:50.180Z,66.50
2018-02-20T17:52:18.322Z,66.80
2018-02-20T17:54:48.211Z,67.50
2018-02-20T17:57:16.356Z,67.60
2018-02-20T17:59:44.497Z,67.60
2018-02-20T18:02:12.657Z,68.10
2018-02-20T18:04:40.801Z,67.80
2018-02-20T18:07:08.953Z,67.70
2018-02-20T18:09:37.090Z,68.00
2018-02-20T18:12:05.250Z,68.10
2018-02-20T18:14:33.392Z,68.10
2018-02-20T18:17:01.548Z,67.90
2018-02-20T18:19:29.700Z,68.50
2018-02-20T18:21:57.852Z,68.90
2018-02-20T18:24:25.993Z,69.20
2018-02-20T18:26:54.145Z,69.70
2018-02-20T18:29:22.283Z,70.00
2018-02-20T18:31:50.441Z,70.50
2018-02-20T18:34:18.582Z,70.00
2018-02-20T18:36:46.745Z,70.50
2018-02-20T18:39:14.884Z,70.50
2018-02-20T18:41:43.038Z,70.50
2018-02-20T18:44:11.192Z,71.20
2018-02-20T18:46:39.370Z,70.70
2018-02-20T18:49:07.516Z,71.00
2018-02-20T18:51:35.685Z,71.20
2018-02-20T18:54:03.830Z,71.70
2018-02-20T18:56:35.169Z,72.20
2018-02-20T18:59:03.339Z,71.70
2018-02-20T19:01:31.473Z,72.30
2018-02-20T19:04:00.393Z,72.50
2018-02-20T19:06:30.544Z,72.50
2018-02-20T19:08:58.709Z,72.60
2018-02-20T19:11:26.865Z,72.30
2018-02-20T19:13:55.026Z,72.50
2018-02-20T19:16:27.097Z,72.70
2018-02-20T19:18:55.252Z,73.00
2018-02-20T19:21:24.153Z,72.90
2018-02-20T19:23:52.312Z,72.90
2018-02-20T19:26:22.161Z,72.80
2018-02-20T19:28:50.322Z,72.80
2018-02-20T19:31:18.476Z,73.10
2018-02-20T19:33:48.960Z,73.20
2018-02-20T19:36:17.098Z,72.70
2018-02-20T19:38:45.260Z,72.90
2018-02-20T19:41:13.393Z,73.20
2018-02-20T19:43:42.458Z,73.50
2018-02-20T19:46:10.597Z,73.50
2018-02-20T19:48:38.769Z,74.30
2018-02-20T19:51:06.905Z,74.40
2018-02-20T19:53:35.071Z,74.50
2018-02-20T19:56:03.209Z,74.80
2018-02-20T19:58:31.369Z,74.90
2018-02-20T20:00:59.509Z,74.90
2018-02-20T20:03:28.429Z,75.30
2018-02-20T20:05:56.623Z,75.20
2018-02-20T20:08:24.785Z,74.10
2018-02-20T20:10:52.941Z,74.80
2018-02-20T20:13:21.085Z,74.80
2018-02-20T20:15:49.248Z,74.50
2018-02-20T20:18:17.381Z,73.50
2018-02-20T20:20:48.059Z,74.00
2018-02-20T20:23:13.692Z,74.30
2018-02-20T20:25:42.613Z,75.60
2018-02-20T20:28:10.753Z,75.50
2018-02-20T20:30:39.699Z,75.80
2018-02-20T20:33:07.833Z,75.70
2018-02-20T20:35:36.753Z,75.90
2018-02-20T20:38:05.656Z,76.20
2018-02-20T20:40:33.810Z,76.20
2018-02-20T20:43:01.946Z,76.40
2018-02-20T20:45:30.871Z,77.20
2018-02-20T20:47:59.776Z,77.40
2018-02-20T20:50:27.996Z,77.40
2018-02-20T20:52:56.905Z,78.10
2018-02-20T20:55:25.829Z,79.10
2018-02-20T20:57:53.980Z,79.10
2018-02-20T21:00:22.141Z,78.80
2018-02-20T21:02:51.049Z,79.60
2018-02-20T21:05:19.233Z,79.60
2018-02-20T21:07:47.369Z,79.50
2018-02-20T21:10:16.273Z,80.20
2018-02-20T21:12:44.476Z,80.20
2018-02-20T21:15:13.377Z,80.80
2018-02-20T21:17:41.541Z,80.80
2018-02-20T21:20:09.675Z,80.60
2018-02-20T21:22:38.598Z,81.00
2018-02-20T21:25:06.737Z,80.80
2018-02-20T21:27:35.660Z,81.70
2018-02-20T21:30:03.798Z,81.70
2018-02-20T21:32:32.741Z,82.10
2018-02-20T21:35:03.893Z,82.10
2018-02-20T21:37:32.048Z,81.40
2018-02-20T21:40:00.188Z,81.80
2018-02-20T21:42:29.109Z,82.30
2018-02-20T21:44:57.244Z,82.20
2018-02-20T21:47:26.171Z,82.30
2018-02-20T21:49:54.309Z,82.20
2018-02-20T21:52:23.237Z,82.90
2018-02-20T21:54:51.380Z,82.90
2018-02-20T21:57:20.304Z,83.40
2018-02-20T21:59:48.440Z,83.30
2018-02-20T22:02:17.376Z,83.80
2018-02-20T22:04:45.514Z,83.80
2018-02-20T22:07:13.653Z,84.10
2018-02-20T22:09:41.805Z,84.20
2018-02-20T22:12:09.941Z,84.70
2018-02-20T22:14:38.098Z,84.80
2018-02-20T22:17:07.020Z,84.70
2018-02-20T22:19:35.205Z,84.70
2018-02-20T22:22:03.341Z,84.30
2018-02-20T22:24:31.510Z,84.20
2018-02-20T22:27:00.413Z,84.50
2018-02-20T22:29:28.573Z,84.50
2018-02-20T22:31:56.729Z,85.00
2018-02-20T22:34:25.657Z,84.80
2018-02-20T22:36:54.732Z,84.70
2018-02-20T22:39:23.669Z,84.90
2018-02-20T22:41:51.812Z,84.90
2018-02-20T22:44:19.969Z,85.30
2018-02-20T22:46:48.882Z,85.70
2018-02-20T22:49:17.069Z,85.70
2018-02-20T22:51:45.309Z,85.90
2018-02-20T22:54:14.249Z,85.90
2018-02-20T22:56:42.443Z,85.90
2018-02-20T22:59:10.601Z,86.30
2018-02-20T23:01:38.781Z,86.50
2018-02-20T23:04:06.968Z,86.50
2018-02-20T23:06:35.161Z,86.20
2018-02-20T23:09:04.140Z,87.00
2018-02-20T23:11:47.125Z,87.00
2018-02-20T23:14:15.325Z,87.00
2018-02-20T23:16:43.508Z,86.80
2018-02-20T23:19:11.654Z,87.20
2018-02-20T23:21:39.825Z,87.60
2018-02-20T23:24:07.960Z,87.30
2018-02-20T23:26:36.121Z,87.40
2018-02-20T23:29:05.058Z,86.20
2018-02-20T23:31:33.245Z,86.20
2018-02-20T23:34:01.407Z,85.90
2018-02-20T23:36:29.557Z,86.00
2018-02-20T23:38:57.694Z,86.20
2018-02-20T23:41:26.648Z,86.00
2018-02-20T23:43:54.784Z,86.00
2018-02-20T23:46:22.921Z,86.10
2018-02-20T23:48:51.076Z,86.10
2018-02-20T23:51:24.805Z,86.40
2018-02-20T23:53:53.733Z,86.20
2018-02-20T23:56:21.873Z,86.20
2018-02-20T23:58:50.798Z,88.30
